createdAt,value
2023-03-16T00:02:15.409Z,12.35
2023-03-16T00:04:42.215Z,14.88
2023-03-16T00:07:11.573Z,17.00
2023-03-16T00:09:42.819Z,13.45
2023-03-16T00:12:17.880Z,18.90
2023-03-16T00:14:46.897Z,10.52
2023-03-16T00:17:19.759Z,14.70
2023-03-16T00:19:48.941Z,17.35
2023-03-16T00:22:16.526Z,15.00
2023-03-16T00:24:43.778Z,15.55
2023-03-16T00:27:14.959Z,15.07
2023-03-16T00:29:47.143Z,21.20
2023-03-16T00:32:19.489Z,15.20
2023-03-16T00:34:48.248Z,17.83
2023-03-16T00:37:18.420Z,14.45
2023-03-16T00:39:47.176Z,16.02
2023-03-16T00:42:16.808Z,12.98
2023-03-16T00:44:44.847Z,13.50
2023-03-16T00:47:15.865Z,16.65
2023-03-16T00:49:44.482Z,17.00
2023-03-16T00:52:16.593Z,11.00
2023-03-16T00:54:45.632Z,11.70
2023-03-16T00:57:15.206Z,15.27
2023-03-16T00:59:42.478Z,13.00
2023-03-16T01:02:11.220Z,11.43
2023-03-16T01:04:40.234Z,14.30
2023-03-16T01:07:09.140Z,14.13
2023-03-16T01:09:37.201Z,14.82
2023-03-16T01:12:09.136Z,15.55
2023-03-16T01:14:36.798Z,13.80
2023-03-16T01:17:06.350Z,15.18
2023-03-16T01:19:36.096Z,20.08
2023-03-16T01:22:06.086Z,14.37
2023-03-16T01:24:34.828Z,10.85
2023-03-16T01:27:02.160Z,17.65
2023-03-16T01:29:29.998Z,18.13
2023-03-16T01:31:59.132Z,15.23
2023-03-16T01:34:26.523Z,14.35
2023-03-16T01:36:54.131Z,14.55
2023-03-16T01:39:38.894Z,13.50
2023-03-16T01:42:06.871Z,20.73
2023-03-16T01:44:55.543Z,16.63
2023-03-16T01:47:26.532Z,13.50
2023-03-16T01:49:56.342Z,16.10
2023-03-16T01:52:33.590Z,18.02
2023-03-16T01:55:04.466Z,14.65
2023-03-16T01:57:37.154Z,10.00
2023-03-16T02:00:14.857Z,15.35
2023-03-16T02:02:44.926Z,11.02
2023-03-16T02:05:36.888Z,15.02
2023-03-16T02:08:05.652Z,13.35
2023-03-16T02:10:33.740Z,15.00
2023-03-16T02:13:01.729Z,12.90
2023-03-16T02:15:28.969Z,13.38
2023-03-16T02:17:57.993Z,12.20
2023-03-16T02:20:46.823Z,17.80
2023-03-16T02:23:19.916Z,15.77
2023-03-16T02:26:10.916Z,13.93
2023-03-16T02:29:11.577Z,18.02
2023-03-16T02:31:40.165Z,17.70
2023-03-16T02:34:08.307Z,13.32
2023-03-16T02:36:37.990Z,16.73
2023-03-16T02:39:06.114Z,19.55
2023-03-16T02:41:42.156Z,21.98
2023-03-16T02:44:24.508Z,19.05
2023-03-16T02:46:58.337Z,19.10
2023-03-16T02:49:36.511Z,19.85
2023-03-16T02:52:07.944Z,20.20
2023-03-16T02:57:04.086Z,21.92
2023-03-16T02:59:32.507Z,25.70
2023-03-16T03:01:59.688Z,21.42
2023-03-16T03:04:26.545Z,25.70
2023-03-16T03:06:53.503Z,27.92
2023-03-16T03:09:20.978Z,27.20
2023-03-16T03:11:52.466Z,30.92
2023-03-16T03:14:21.077Z,33.17
2023-03-16T03:16:49.647Z,33.53
2023-03-16T03:19:16.622Z,30.00
2023-03-16T03:21:43.918Z,34.15
2023-03-16T03:24:10.838Z,31.15
2023-03-16T03:26:38.312Z,30.00
2023-03-16T03:29:09.176Z,26.60
2023-03-16T03:31:36.273Z,29.45
2023-03-16T03:34:06.680Z,32.65
2023-03-16T03:36:35.616Z,31.58
2023-03-16T03:39:05.270Z,26.25
2023-03-16T03:41:34.046Z,29.37
2023-03-16T03:44:02.649Z,25.15
2023-03-16T03:46:29.813Z,28.33
2023-03-16T03:49:01.480Z,25.60
2023-03-16T03:51:29.730Z,24.58
2023-03-16T03:54:01.869Z,25.27
2023-03-16T03:57:05.312Z,26.45
2023-03-16T03:59:32.401Z,25.48
2023-03-16T04:02:13.392Z,31.63
2023-03-16T04:04:58.400Z,25.85
2023-03-16T04:07:25.660Z,29.70
2023-03-16T04:09:56.389Z,25.77
2023-03-16T04:12:31.567Z,26.30
2023-03-16T04:14:58.660Z,20.48
2023-03-16T04:17:30.447Z,25.20
2023-03-16T04:19:59.477Z,21.58
2023-03-16T04:22:26.655Z,25.45
2023-03-16T04:24:53.506Z,21.13
2023-03-16T04:27:21.955Z,23.45
2023-03-16T04:29:48.924Z,24.05
2023-03-16T04:32:15.933Z,26.67
2023-03-16T04:34:44.088Z,30.05
2023-03-16T04:37:13.425Z,26.17
2023-03-16T04:39:42.468Z,27.33
2023-03-16T04:42:09.698Z,23.58
2023-03-16T04:44:44.290Z,26.10
2023-03-16T04:47:13.939Z,23.10
2023-03-16T04:49:42.076Z,20.88
2023-03-16T04:52:10.370Z,20.27
2023-03-16T04:54:37.345Z,23.10
2023-03-16T04:57:05.245Z,19.20
2023-03-16T04:59:39.107Z,21.85
2023-03-16T05:02:16.988Z,56.25
2023-03-16T05:04:44.180Z,21.75
2023-03-16T05:07:12.311Z,21.73
2023-03-16T05:09:43.510Z,18.83
2023-03-16T05:12:11.104Z,18.10
2023-03-16T05:14:39.136Z,19.33
2023-03-16T05:17:22.893Z,21.35
2023-03-16T05:19:50.953Z,20.58
2023-03-16T05:22:19.685Z,21.23
2023-03-16T05:25:17.066Z,20.15
2023-03-16T05:27:50.962Z,17.85
2023-03-16T05:30:26.879Z,19.77
2023-03-16T05:32:58.185Z,19.05
2023-03-16T05:35:26.896Z,18.58
2023-03-16T05:37:58.665Z,17.88
2023-03-16T05:40:26.632Z,18.80
2023-03-16T05:43:12.508Z,17.55
2023-03-16T05:45:45.122Z,16.70
2023-03-16T05:48:15.637Z,22.65
2023-03-16T05:50:46.150Z,20.20
2023-03-16T05:53:16.778Z,20.33
2023-03-16T05:55:44.336Z,15.40
2023-03-16T05:58:14.671Z,14.23
2023-03-16T06:00:43.798Z,13.82
2023-03-16T06:03:31.573Z,11.20
2023-03-16T06:05:59.863Z,17.02
2023-03-16T06:08:31.044Z,14.85
2023-03-16T06:11:07.220Z,21.83
2023-03-16T06:13:34.584Z,17.15
2023-03-16T06:16:02.613Z,18.77
2023-03-16T06:18:30.169Z,17.50
2023-03-16T06:20:57.413Z,17.13
2023-03-16T06:23:25.504Z,17.10
2023-03-16T06:25:59.766Z,24.10
2023-03-16T06:28:30.152Z,18.70
2023-03-16T06:30:58.614Z,16.52
2023-03-16T06:33:29.849Z,16.95
2023-03-16T06:35:57.353Z,22.50
2023-03-16T06:38:31.622Z,19.88
2023-03-16T06:41:03.583Z,17.08
2023-03-16T06:43:33.598Z,16.60
2023-03-16T06:46:01.772Z,14.65
2023-03-16T06:48:29.560Z,15.32
2023-03-16T06:50:56.529Z,19.60
2023-03-16T06:53:26.699Z,16.92
2023-03-16T06:55:55.324Z,15.25
2023-03-16T06:58:22.606Z,16.33
2023-03-16T07:00:49.665Z,14.50
2023-03-16T07:03:16.783Z,15.63
2023-03-16T07:05:49.228Z,21.58
2023-03-16T07:08:16.215Z,17.17
2023-03-16T07:10:43.158Z,14.77
2023-03-16T07:13:11.643Z,16.42
2023-03-16T07:15:38.932Z,11.73
2023-03-16T07:18:06.913Z,13.35
2023-03-16T07:20:35.334Z,17.25
2023-03-16T07:23:05.549Z,15.40
2023-03-16T07:25:34.147Z,14.10
2023-03-16T07:28:01.983Z,16.50
2023-03-16T07:30:33.958Z,14.13
2023-03-16T07:33:01.935Z,10.85
2023-03-16T07:35:30.375Z,13.43
2023-03-16T07:37:58.102Z,14.13
2023-03-16T07:40:26.036Z,15.15
2023-03-16T07:42:57.825Z,8.05
2023-03-16T07:45:33.910Z,7.97
2023-03-16T07:48:01.964Z,9.63
2023-03-16T07:50:39.566Z,8.63
2023-03-16T07:53:06.520Z,8.23
2023-03-16T07:55:38.942Z,16.75
2023-03-16T07:58:08.148Z,27.35
2023-03-16T08:00:38.297Z,12.18
2023-03-16T08:03:05.848Z,12.73
2023-03-16T08:05:34.168Z,9.90
2023-03-16T08:08:06.194Z,7.20
2023-03-16T08:10:34.004Z,10.68
2023-03-16T08:13:07.310Z,9.45
2023-03-16T08:15:35.803Z,7.65
2023-03-16T08:18:12.657Z,6.85
2023-03-16T08:20:39.901Z,8.65
2023-03-16T08:23:08.484Z,4.97
2023-03-16T08:25:38.961Z,5.73
2023-03-16T08:28:16.121Z,6.80
2023-03-16T08:30:48.338Z,4.28
2023-03-16T08:33:26.032Z,6.43
2023-03-16T08:35:53.168Z,8.90
2023-03-16T08:38:20.441Z,7.00
2023-03-16T08:40:51.131Z,7.35
2023-03-16T08:43:20.552Z,5.45
2023-03-16T08:45:49.211Z,5.88
2023-03-16T08:48:18.472Z,6.13
2023-03-16T08:50:48.949Z,4.20
2023-03-16T08:53:15.969Z,10.23
2023-03-16T08:55:43.261Z,5.00
2023-03-16T08:58:11.320Z,4.53
2023-03-16T09:00:39.241Z,7.13
2023-03-16T09:03:07.322Z,5.15
2023-03-16T09:05:34.453Z,5.45
2023-03-16T09:08:01.845Z,5.18
2023-03-16T09:10:29.212Z,4.18
2023-03-16T09:12:56.820Z,3.50
2023-03-16T09:15:24.354Z,4.40
2023-03-16T09:17:51.946Z,4.40
2023-03-16T09:20:26.367Z,3.13
2023-03-16T09:22:55.826Z,4.00
2023-03-16T09:25:24.389Z,5.28
2023-03-16T09:27:52.742Z,5.25
2023-03-16T09:30:19.993Z,10.15
2023-03-16T09:32:49.005Z,6.93
2023-03-16T09:35:16.250Z,4.32
2023-03-16T09:37:45.960Z,5.78
2023-03-16T09:40:30.824Z,4.60
2023-03-16T09:43:25.762Z,4.13
2023-03-16T09:45:55.681Z,3.28
2023-03-16T09:48:25.418Z,2.72
2023-03-16T09:50:54.923Z,4.75
2023-03-16T09:53:37.121Z,4.05
2023-03-16T09:56:20.668Z,5.60
2023-03-16T09:58:47.631Z,3.20
2023-03-16T10:01:24.314Z,2.72
2023-03-16T10:04:26.684Z,3.10
2023-03-16T10:07:05.005Z,2.97
2023-03-16T10:09:43.807Z,6.55
2023-03-16T10:12:13.839Z,9.10
2023-03-16T10:14:59.968Z,3.53
2023-03-16T10:17:33.412Z,3.47
2023-03-16T10:20:09.003Z,3.88
2023-03-16T10:22:42.444Z,5.57
2023-03-16T10:25:23.840Z,4.60
2023-03-16T10:30:32.064Z,2.78
2023-03-16T10:33:13.858Z,10.90
2023-03-16T10:35:46.784Z,8.32
2023-03-16T10:38:40.298Z,7.38
2023-03-16T10:41:20.456Z,10.38
2023-03-16T10:43:51.338Z,11.50
2023-03-16T10:46:18.983Z,10.38
2023-03-16T10:49:00.979Z,14.02
2023-03-16T10:51:37.886Z,8.18
2023-03-16T10:54:26.647Z,6.32
2023-03-16T10:56:53.699Z,21.83
2023-03-16T10:59:34.652Z,20.10
2023-03-16T11:02:22.748Z,12.48
2023-03-16T11:04:50.718Z,24.63
2023-03-16T11:07:19.279Z,6.97
2023-03-16T11:09:47.955Z,10.63
2023-03-16T11:12:32.244Z,8.63
2023-03-16T11:15:20.110Z,15.18
2023-03-16T11:17:55.714Z,22.92
2023-03-16T11:20:32.778Z,31.80
2023-03-16T11:23:01.584Z,20.60
2023-03-16T11:25:47.062Z,3.00
2023-03-16T11:28:24.557Z,7.88
2023-03-16T11:31:27.681Z,14.85
2023-03-16T11:33:57.667Z,10.70
2023-03-16T11:36:30.670Z,24.38
2023-03-16T11:39:23.981Z,19.77
2023-03-16T11:41:59.920Z,5.88
2023-03-16T11:44:55.934Z,7.53
2023-03-16T11:47:45.041Z,9.73
2023-03-16T11:50:18.060Z,9.20
2023-03-16T11:52:59.822Z,9.93
2023-03-16T11:55:33.809Z,2.95
2023-03-16T11:58:29.056Z,3.97
2023-03-16T12:01:08.810Z,5.43
2023-03-16T12:03:53.930Z,5.28
2023-03-16T12:06:30.799Z,4.70
2023-03-16T12:09:04.656Z,5.95
2023-03-16T12:11:42.574Z,10.95
2023-03-16T12:14:41.453Z,5.57
2023-03-16T12:17:23.730Z,6.55
2023-03-16T12:20:13.957Z,8.02
2023-03-16T12:22:53.761Z,11.65
2023-03-16T12:25:32.858Z,10.45
2023-03-16T12:28:02.892Z,5.72
2023-03-16T12:30:51.017Z,11.55
2023-03-16T12:33:25.628Z,3.72
2023-03-16T12:36:03.493Z,9.05
2023-03-16T12:38:45.348Z,4.45
2023-03-16T12:41:58.043Z,2.78
2023-03-16T12:44:49.198Z,5.97
2023-03-16T12:47:15.983Z,12.00
2023-03-16T12:49:43.289Z,9.18
2023-03-16T12:52:12.762Z,5.10
2023-03-16T12:54:50.063Z,3.00
2023-03-16T12:57:18.630Z,4.28
2023-03-16T12:59:54.310Z,3.05
2023-03-16T13:02:37.668Z,3.80
2023-03-16T13:05:07.729Z,4.25
2023-03-16T13:07:35.409Z,3.13
2023-03-16T13:10:10.384Z,4.72
2023-03-16T13:12:39.023Z,2.83
2023-03-16T13:15:22.408Z,4.45
2023-03-16T13:18:07.810Z,6.88
2023-03-16T13:20:56.489Z,6.07
2023-03-16T13:23:27.679Z,4.38
2023-03-16T13:26:03.478Z,2.90
2023-03-16T13:28:35.186Z,2.88
2023-03-16T13:31:02.882Z,3.35
2023-03-16T13:33:38.297Z,3.97
2023-03-16T13:36:06.537Z,3.10
2023-03-16T13:38:33.679Z,3.22
2023-03-16T13:41:09.552Z,3.90
2023-03-16T13:43:41.829Z,3.20
2023-03-16T13:46:21.509Z,4.25
2023-03-16T13:48:48.956Z,7.20
2023-03-16T13:51:22.919Z,5.70
2023-03-16T13:53:51.003Z,5.20
2023-03-16T13:56:24.341Z,4.88
2023-03-16T13:58:52.823Z,5.68
2023-03-16T14:01:29.564Z,3.10
2023-03-16T14:04:03.204Z,3.90
2023-03-16T14:06:31.712Z,3.92
2023-03-16T14:09:05.804Z,3.15
2023-03-16T14:11:33.189Z,3.28
2023-03-16T14:14:00.952Z,4.53
2023-03-16T14:16:29.866Z,4.03
2023-03-16T14:19:06.985Z,2.45
2023-03-16T14:21:34.790Z,3.42
2023-03-16T14:24:04.926Z,3.53
2023-03-16T14:26:46.467Z,4.82
2023-03-16T14:29:22.523Z,14.82
2023-03-16T14:31:49.693Z,9.18
2023-03-16T14:34:31.516Z,7.63
2023-03-16T14:37:19.162Z,6.78
2023-03-16T14:39:58.162Z,7.10
2023-03-16T14:42:30.895Z,15.07
2023-03-16T14:45:00.216Z,8.90
2023-03-16T14:47:32.714Z,9.07
2023-03-16T14:50:07.894Z,7.30
2023-03-16T14:52:35.624Z,18.67
2023-03-16T14:55:11.804Z,11.25
2023-03-16T14:57:41.915Z,29.30
2023-03-16T15:00:15.584Z,18.83
2023-03-16T15:02:46.209Z,13.20
2023-03-16T15:05:22.445Z,11.57
2023-03-16T15:07:54.408Z,9.30
2023-03-16T15:10:28.091Z,5.97
2023-03-16T15:13:04.277Z,6.10
2023-03-16T15:15:31.679Z,5.20
2023-03-16T15:17:59.383Z,5.75
2023-03-16T15:20:35.316Z,4.97
2023-03-16T15:23:05.110Z,6.70
2023-03-16T15:25:37.374Z,15.57
2023-03-16T15:28:21.503Z,13.57
2023-03-16T15:30:52.052Z,28.10
2023-03-16T15:33:19.931Z,34.53
2023-03-16T15:35:49.457Z,24.13
2023-03-16T15:38:29.497Z,18.92
2023-03-16T15:40:56.375Z,36.83
2023-03-16T15:43:27.378Z,32.15
2023-03-16T15:45:56.265Z,29.33
2023-03-16T15:48:25.463Z,26.33
2023-03-16T15:50:58.340Z,16.65
2023-03-16T15:53:32.580Z,15.60
2023-03-16T15:56:04.843Z,15.45
2023-03-16T15:58:34.100Z,10.77
2023-03-16T16:01:03.062Z,8.43
2023-03-16T16:03:30.055Z,14.10
2023-03-16T16:05:57.691Z,12.43
2023-03-16T16:08:24.462Z,13.10
2023-03-16T16:10:53.594Z,14.60
2023-03-16T16:13:26.723Z,8.82
2023-03-16T16:15:59.165Z,14.57
2023-03-16T16:18:38.858Z,27.92
2023-03-16T16:21:09.133Z,5.70
2023-03-16T16:23:37.296Z,14.55
2023-03-16T16:26:12.853Z,11.15
2023-03-16T16:28:39.852Z,6.72
2023-03-16T16:31:13.053Z,6.07
2023-03-16T16:33:40.246Z,6.43
2023-03-16T16:36:14.307Z,7.82
2023-03-16T16:38:41.285Z,12.73
2023-03-16T16:41:10.702Z,30.80
2023-03-16T16:43:41.957Z,42.85
2023-03-16T16:48:54.552Z,20.25
2023-03-16T16:51:24.793Z,22.00
2023-03-16T16:54:11.671Z,34.17
2023-03-16T16:56:42.113Z,11.88
2023-03-16T16:59:28.760Z,18.75
2023-03-16T17:01:56.824Z,20.85
2023-03-16T17:04:27.234Z,34.15
2023-03-16T17:06:58.845Z,27.90
2023-03-16T17:09:27.312Z,18.42
2023-03-16T17:11:56.305Z,34.63
2023-03-16T17:14:28.476Z,28.85
2023-03-16T17:16:56.232Z,23.88
2023-03-16T17:19:28.794Z,27.00
2023-03-16T17:21:57.683Z,23.73
2023-03-16T17:24:25.055Z,20.30
2023-03-16T17:26:54.899Z,23.40
2023-03-16T17:29:27.403Z,26.63
2023-03-16T17:31:54.478Z,19.70
2023-03-16T17:34:24.104Z,9.60
2023-03-16T17:36:51.609Z,14.77
2023-03-16T17:39:24.597Z,16.20
2023-03-16T17:41:56.473Z,17.15
2023-03-16T17:44:25.066Z,19.67
2023-03-16T17:46:53.045Z,17.70
2023-03-16T17:49:20.731Z,18.33
2023-03-16T17:51:47.986Z,12.27
2023-03-16T17:54:15.037Z,17.38
2023-03-16T17:56:42.157Z,20.33
2023-03-16T17:59:27.817Z,17.23
2023-03-16T18:01:54.684Z,15.73
2023-03-16T18:04:24.698Z,11.93
2023-03-16T18:06:52.465Z,14.48
2023-03-16T18:09:21.149Z,13.25
2023-03-16T18:11:51.138Z,8.52
2023-03-16T18:14:35.407Z,10.18
2023-03-16T18:17:17.491Z,6.80
2023-03-16T18:19:45.743Z,5.07
2023-03-16T18:22:22.024Z,3.78
2023-03-16T18:24:50.902Z,3.97
2023-03-16T18:27:18.049Z,4.28
2023-03-16T18:29:47.041Z,7.43
2023-03-16T18:32:26.025Z,5.97
2023-03-16T18:34:53.570Z,5.28
2023-03-16T18:37:27.188Z,7.00
2023-03-16T18:39:55.001Z,16.02
2023-03-16T18:42:27.800Z,5.32
2023-03-16T18:44:54.864Z,7.72
2023-03-16T18:47:31.622Z,8.07
2023-03-16T18:49:59.538Z,10.45
2023-03-16T18:52:30.811Z,15.52
2023-03-16T18:54:58.393Z,7.00
2023-03-16T18:57:28.205Z,15.35
2023-03-16T18:59:55.454Z,12.77
2023-03-16T19:02:30.573Z,30.33
2023-03-16T19:04:59.803Z,25.67
2023-03-16T19:07:38.911Z,9.70
2023-03-16T19:10:18.560Z,16.73
2023-03-16T19:12:45.602Z,19.75
2023-03-16T19:15:19.879Z,18.73
2023-03-16T19:17:47.758Z,13.98
2023-03-16T19:20:16.914Z,12.02
2023-03-16T19:22:46.257Z,14.90
2023-03-16T19:25:18.201Z,10.68
2023-03-16T19:27:46.187Z,13.13
2023-03-16T19:30:25.688Z,13.18
2023-03-16T19:32:53.372Z,8.25
2023-03-16T19:35:21.841Z,13.18
2023-03-16T19:37:49.182Z,11.30
2023-03-16T19:40:19.666Z,10.27
2023-03-16T19:42:48.149Z,12.68
2023-03-16T19:45:22.853Z,17.60
2023-03-16T19:47:50.940Z,12.38
2023-03-16T19:50:21.574Z,16.70
2023-03-16T19:52:49.245Z,14.75
2023-03-16T19:55:22.353Z,12.77
2023-03-16T19:57:57.601Z,14.30
2023-03-16T20:00:26.198Z,12.13
2023-03-16T20:02:57.872Z,13.00
2023-03-16T20:05:28.972Z,14.05
2023-03-16T20:10:29.681Z,11.65
2023-03-16T20:13:01.725Z,14.90
2023-03-16T20:15:32.574Z,11.55
2023-03-16T20:18:00.046Z,18.27
2023-03-16T20:20:29.958Z,15.38
2023-03-16T20:22:59.655Z,20.20
2023-03-16T20:25:31.656Z,20.50
2023-03-16T20:28:02.075Z,17.85
2023-03-16T20:30:30.828Z,19.73
2023-03-16T20:32:58.455Z,18.35
2023-03-16T20:35:29.530Z,22.60
2023-03-16T20:37:56.651Z,18.90
2023-03-16T20:40:24.459Z,29.33
2023-03-16T20:42:52.386Z,23.70
2023-03-16T20:45:23.664Z,33.50
2023-03-16T20:47:52.277Z,23.83
2023-03-16T20:50:23.949Z,25.08
2023-03-16T20:52:51.580Z,16.65
2023-03-16T20:55:21.528Z,14.05
2023-03-16T20:57:49.785Z,9.05
2023-03-16T21:00:34.872Z,8.70
2023-03-16T21:03:05.513Z,10.07
2023-03-16T21:05:32.525Z,7.53
2023-03-16T21:07:59.750Z,9.40
2023-03-16T21:10:28.223Z,8.60
2023-03-16T21:12:57.542Z,7.25
2023-03-16T21:15:31.280Z,12.30
2023-03-16T21:18:04.791Z,11.55
2023-03-16T21:20:34.400Z,10.10
2023-03-16T21:23:02.272Z,8.63
2023-03-16T21:25:34.540Z,8.32
2023-03-16T21:28:04.307Z,9.63
2023-03-16T21:30:33.912Z,8.35
2023-03-16T21:33:02.000Z,6.70
2023-03-16T21:35:36.069Z,5.65
2023-03-16T21:38:12.753Z,6.63
2023-03-16T21:40:39.894Z,8.25
2023-03-16T21:43:07.839Z,5.38
2023-03-16T21:45:36.667Z,7.45
2023-03-16T21:48:04.249Z,9.15
2023-03-16T21:50:36.824Z,8.95
2023-03-16T21:53:18.668Z,5.03
2023-03-16T21:55:45.682Z,5.85
2023-03-16T21:58:12.782Z,7.53
2023-03-16T22:00:40.112Z,8.27
2023-03-16T22:03:26.768Z,6.63
2023-03-16T22:05:55.948Z,6.22
2023-03-16T22:08:29.149Z,6.18
2023-03-16T22:10:57.579Z,12.10
2023-03-16T22:13:26.664Z,11.93
2023-03-16T22:15:56.442Z,6.20
2023-03-16T22:18:36.982Z,8.10
2023-03-16T22:21:22.621Z,7.13
2023-03-16T22:23:49.882Z,7.72
2023-03-16T22:26:20.374Z,8.43
2023-03-16T22:28:48.348Z,8.00
2023-03-16T22:31:18.898Z,7.30
2023-03-16T22:33:48.829Z,8.53
2023-03-16T22:36:22.898Z,8.07
2023-03-16T22:38:57.133Z,6.30
2023-03-16T22:41:24.625Z,5.40
2023-03-16T22:43:51.861Z,4.68
2023-03-16T22:46:25.388Z,4.82
2023-03-16T22:48:54.300Z,4.35
2023-03-16T22:51:30.065Z,6.10
2023-03-16T22:54:01.531Z,5.30
2023-03-16T22:56:31.429Z,4.60
2023-03-16T22:59:04.706Z,4.38
2023-03-16T23:01:44.135Z,5.55
2023-03-16T23:04:21.680Z,5.40
2023-03-16T23:06:50.970Z,8.43
2023-03-16T23:09:20.450Z,7.63
2023-03-16T23:11:53.607Z,5.50
2023-03-16T23:14:27.251Z,6.05
2023-03-16T23:16:54.413Z,6.38
2023-03-16T23:19:26.113Z,7.35
2023-03-16T23:21:55.221Z,5.05
2023-03-16T23:24:22.784Z,4.75
2023-03-16T23:26:51.443Z,4.55
2023-03-16T23:29:19.460Z,5.53
2023-03-16T23:31:47.958Z,4.57
2023-03-16T23:34:21.570Z,4.95
2023-03-16T23:36:49.696Z,5.93
2023-03-16T23:39:16.559Z,4.97
2023-03-16T23:41:47.615Z,7.38
2023-03-16T23:44:18.664Z,4.60
2023-03-16T23:46:45.965Z,4.45
2023-03-16T23:49:39.055Z,4.80
2023-03-16T23:52:06.388Z,3.97
2023-03-16T23:54:33.395Z,5.38
2023-03-16T23:57:01.220Z,3.70
2023-03-16T23:59:28.979Z,6.45
